sensor_id;sensor_type;location;lat;lon;timestamp;P1;durP1;ratioP1;P2;durP2;ratioP2
32216;SDS011;67098;51.140;4.088;2023-09-12T00:02:24;28.63;;;19.42;;
32216;SDS011;67098;51.140;4.088;2023-09-12T00:04:50;28.05;;;20.70;;
32216;SDS011;67098;51.140;4.088;2023-09-12T00:07:16;27.40;;;19.08;;
32216;SDS011;67098;51.140;4.088;2023-09-12T00:09:42;29.48;;;19.10;;
32216;SDS011;67098;51.140;4.088;2023-09-12T00:12:07;27.30;;;19.20;;
32216;SDS011;67098;51.140;4.088;2023-09-12T00:14:33;25.25;;;17.63;;
32216;SDS011;67098;51.140;4.088;2023-09-12T00:16:59;32.97;;;19.00;;
32216;SDS011;67098;51.140;4.088;2023-09-12T00:19:25;30.55;;;21.60;;
32216;SDS011;67098;51.140;4.088;2023-09-12T00:21:51;25.25;;;18.83;;
32216;SDS011;67098;51.140;4.088;2023-09-12T00:24:18;36.03;;;21.60;;
32216;SDS011;67098;51.140;4.088;2023-09-12T00:26:43;35.22;;;21.83;;
32216;SDS011;67098;51.140;4.088;2023-09-12T00:29:09;39.58;;;24.42;;
32216;SDS011;67098;51.140;4.088;2023-09-12T00:31:36;43.97;;;28.02;;
32216;SDS011;67098;51.140;4.088;2023-09-12T00:34:03;41.22;;;27.67;;
32216;SDS011;67098;51.140;4.088;2023-09-12T00:36:28;46.88;;;27.95;;
32216;SDS011;67098;51.140;4.088;2023-09-12T00:38:54;48.10;;;29.00;;
32216;SDS011;67098;51.140;4.088;2023-09-12T00:41:20;47.28;;;28.70;;
32216;SDS011;67098;51.140;4.088;2023-09-12T00:43:46;45.22;;;30.48;;
32216;SDS011;67098;51.140;4.088;2023-09-12T00:46:13;47.17;;;29.58;;
32216;SDS011;67098;51.140;4.088;2023-09-12T00:48:43;48.72;;;31.58;;
32216;SDS011;67098;51.140;4.088;2023-09-12T00:51:09;47.38;;;31.27;;
32216;SDS011;67098;51.140;4.088;2023-09-12T00:53:36;49.47;;;33.38;;
32216;SDS011;67098;51.140;4.088;2023-09-12T00:56:01;49.00;;;32.63;;
32216;SDS011;67098;51.140;4.088;2023-09-12T00:58:27;47.88;;;31.92;;
32216;SDS011;67098;51.140;4.088;2023-09-12T01:00:53;48.13;;;33.40;;
32216;SDS011;67098;51.140;4.088;2023-09-12T01:03:20;50.83;;;33.13;;
32216;SDS011;67098;51.140;4.088;2023-09-12T01:05:46;53.72;;;32.72;;
32216;SDS011;67098;51.140;4.088;2023-09-12T01:08:13;51.33;;;33.40;;
32216;SDS011;67098;51.140;4.088;2023-09-12T01:10:39;47.63;;;32.35;;
32216;SDS011;67098;51.140;4.088;2023-09-12T01:13:05;47.90;;;31.65;;
32216;SDS011;67098;51.140;4.088;2023-09-12T01:15:31;51.25;;;34.60;;
32216;SDS011;67098;51.140;4.088;2023-09-12T01:17:56;47.67;;;33.22;;
32216;SDS011;67098;51.140;4.088;2023-09-12T01:20:27;47.55;;;33.35;;
32216;SDS011;67098;51.140;4.088;2023-09-12T01:23:00;47.03;;;32.88;;
32216;SDS011;67098;51.140;4.088;2023-09-12T01:28:24;44.95;;;30.40;;
32216;SDS011;67098;51.140;4.088;2023-09-12T01:30:53;43.22;;;30.05;;
32216;SDS011;67098;51.140;4.088;2023-09-12T01:33:20;44.92;;;30.20;;
32216;SDS011;67098;51.140;4.088;2023-09-12T01:35:46;48.25;;;30.88;;
32216;SDS011;67098;51.140;4.088;2023-09-12T01:38:12;45.40;;;30.85;;
32216;SDS011;67098;51.140;4.088;2023-09-12T01:40:42;44.20;;;31.33;;
32216;SDS011;67098;51.140;4.088;2023-09-12T01:43:15;48.28;;;31.88;;
32216;SDS011;67098;51.140;4.088;2023-09-12T01:45:47;41.08;;;28.42;;
32216;SDS011;67098;51.140;4.088;2023-09-12T01:48:21;41.35;;;29.30;;
32216;SDS011;67098;51.140;4.088;2023-09-12T01:50:49;42.47;;;29.60;;
32216;SDS011;67098;51.140;4.088;2023-09-12T01:53:16;43.42;;;28.08;;
32216;SDS011;67098;51.140;4.088;2023-09-12T01:55:43;39.60;;;28.88;;
32216;SDS011;67098;51.140;4.088;2023-09-12T01:58:11;39.85;;;29.38;;
32216;SDS011;67098;51.140;4.088;2023-09-12T02:00:37;39.78;;;27.08;;
32216;SDS011;67098;51.140;4.088;2023-09-12T02:03:04;40.35;;;27.67;;
32216;SDS011;67098;51.140;4.088;2023-09-12T02:05:30;41.42;;;27.65;;
32216;SDS011;67098;51.140;4.088;2023-09-12T02:07:56;43.38;;;27.73;;
32216;SDS011;67098;51.140;4.088;2023-09-12T02:10:24;39.72;;;27.10;;
32216;SDS011;67098;51.140;4.088;2023-09-12T02:12:50;45.60;;;27.67;;
32216;SDS011;67098;51.140;4.088;2023-09-12T02:15:15;45.25;;;27.20;;
32216;SDS011;67098;51.140;4.088;2023-09-12T02:17:41;37.90;;;26.42;;
32216;SDS011;67098;51.140;4.088;2023-09-12T02:20:08;39.47;;;26.10;;
32216;SDS011;67098;51.140;4.088;2023-09-12T02:22:34;36.17;;;25.90;;
32216;SDS011;67098;51.140;4.088;2023-09-12T02:25:00;38.33;;;25.30;;
32216;SDS011;67098;51.140;4.088;2023-09-12T02:27:27;40.17;;;26.30;;
32216;SDS011;67098;51.140;4.088;2023-09-12T02:29:53;42.92;;;27.60;;
32216;SDS011;67098;51.140;4.088;2023-09-12T02:32:21;45.78;;;28.30;;
32216;SDS011;67098;51.140;4.088;2023-09-12T02:34:47;42.03;;;26.30;;
32216;SDS011;67098;51.140;4.088;2023-09-12T02:37:12;42.60;;;25.27;;
32216;SDS011;67098;51.140;4.088;2023-09-12T02:39:39;39.25;;;24.98;;
32216;SDS011;67098;51.140;4.088;2023-09-12T02:42:05;48.83;;;26.05;;
32216;SDS011;67098;51.140;4.088;2023-09-12T02:44:31;42.70;;;25.40;;
32216;SDS011;67098;51.140;4.088;2023-09-12T02:46:56;43.20;;;25.40;;
32216;SDS011;67098;51.140;4.088;2023-09-12T02:49:22;37.88;;;25.88;;
32216;SDS011;67098;51.140;4.088;2023-09-12T02:51:48;43.13;;;26.60;;
32216;SDS011;67098;51.140;4.088;2023-09-12T02:54:14;45.10;;;26.52;;
32216;SDS011;67098;51.140;4.088;2023-09-12T02:56:39;41.33;;;25.42;;
32216;SDS011;67098;51.140;4.088;2023-09-12T02:59:05;48.45;;;27.08;;
32216;SDS011;67098;51.140;4.088;2023-09-12T03:01:31;42.72;;;25.00;;
32216;SDS011;67098;51.140;4.088;2023-09-12T03:03:57;37.72;;;25.20;;
32216;SDS011;67098;51.140;4.088;2023-09-12T03:06:23;39.90;;;24.95;;
32216;SDS011;67098;51.140;4.088;2023-09-12T03:08:48;41.33;;;24.40;;
32216;SDS011;67098;51.140;4.088;2023-09-12T03:11:15;36.90;;;24.73;;
32216;SDS011;67098;51.140;4.088;2023-09-12T03:13:41;45.05;;;26.80;;
32216;SDS011;67098;51.140;4.088;2023-09-12T03:16:10;40.92;;;25.98;;
32216;SDS011;67098;51.140;4.088;2023-09-12T03:18:37;40.33;;;26.17;;
32216;SDS011;67098;51.140;4.088;2023-09-12T03:21:03;40.15;;;26.50;;
32216;SDS011;67098;51.140;4.088;2023-09-12T03:23:29;42.70;;;25.55;;
32216;SDS011;67098;51.140;4.088;2023-09-12T03:25:59;38.53;;;25.00;;
32216;SDS011;67098;51.140;4.088;2023-09-12T03:28:29;42.05;;;25.65;;
32216;SDS011;67098;51.140;4.088;2023-09-12T03:31:03;44.33;;;24.50;;
32216;SDS011;67098;51.140;4.088;2023-09-12T03:33:42;38.75;;;23.80;;
32216;SDS011;67098;51.140;4.088;2023-09-12T03:36:13;46.47;;;27.08;;
32216;SDS011;67098;51.140;4.088;2023-09-12T03:38:38;45.28;;;26.88;;
32216;SDS011;67098;51.140;4.088;2023-09-12T03:41:04;40.90;;;25.75;;
32216;SDS011;67098;51.140;4.088;2023-09-12T03:43:30;38.83;;;24.20;;
32216;SDS011;67098;51.140;4.088;2023-09-12T03:45:57;40.85;;;26.80;;
32216;SDS011;67098;51.140;4.088;2023-09-12T03:48:24;42.95;;;26.45;;
32216;SDS011;67098;51.140;4.088;2023-09-12T03:50:50;39.35;;;26.10;;
32216;SDS011;67098;51.140;4.088;2023-09-12T03:53:16;37.70;;;25.40;;
32216;SDS011;67098;51.140;4.088;2023-09-12T03:55:42;43.78;;;24.92;;
32216;SDS011;67098;51.140;4.088;2023-09-12T03:58:08;37.10;;;23.30;;
32216;SDS011;67098;51.140;4.088;2023-09-12T04:00:34;42.72;;;24.20;;
32216;SDS011;67098;51.140;4.088;2023-09-12T04:03:01;41.00;;;23.80;;
32216;SDS011;67098;51.140;4.088;2023-09-12T04:05:27;37.83;;;23.70;;
32216;SDS011;67098;51.140;4.088;2023-09-12T04:07:52;42.80;;;24.05;;
32216;SDS011;67098;51.140;4.088;2023-09-12T04:10:21;42.15;;;26.48;;
32216;SDS011;67098;51.140;4.088;2023-09-12T04:12:47;43.40;;;25.42;;
32216;SDS011;67098;51.140;4.088;2023-09-12T04:15:13;42.33;;;25.33;;
32216;SDS011;67098;51.140;4.088;2023-09-12T04:17:39;41.20;;;24.70;;
32216;SDS011;67098;51.140;4.088;2023-09-12T04:20:05;40.35;;;25.73;;
32216;SDS011;67098;51.140;4.088;2023-09-12T04:22:31;44.88;;;25.45;;
32216;SDS011;67098;51.140;4.088;2023-09-12T04:24:57;38.67;;;24.95;;
32216;SDS011;67098;51.140;4.088;2023-09-12T04:27:23;43.88;;;27.38;;
32216;SDS011;67098;51.140;4.088;2023-09-12T04:29:49;44.80;;;28.45;;
32216;SDS011;67098;51.140;4.088;2023-09-12T04:32:15;41.55;;;26.02;;
32216;SDS011;67098;51.140;4.088;2023-09-12T04:34:48;41.90;;;25.05;;
32216;SDS011;67098;51.140;4.088;2023-09-12T04:37:14;46.08;;;28.15;;
32216;SDS011;67098;51.140;4.088;2023-09-12T04:39:40;43.30;;;25.80;;
32216;SDS011;67098;51.140;4.088;2023-09-12T04:42:05;49.42;;;27.65;;
32216;SDS011;67098;51.140;4.088;2023-09-12T04:44:35;48.05;;;28.88;;
32216;SDS011;67098;51.140;4.088;2023-09-12T04:47:01;44.10;;;26.90;;
32216;SDS011;67098;51.140;4.088;2023-09-12T04:49:28;45.75;;;25.33;;
32216;SDS011;67098;51.140;4.088;2023-09-12T04:51:53;40.58;;;25.60;;
32216;SDS011;67098;51.140;4.088;2023-09-12T04:54:19;42.67;;;25.98;;
32216;SDS011;67098;51.140;4.088;2023-09-12T04:56:45;41.90;;;25.65;;
32216;SDS011;67098;51.140;4.088;2023-09-12T04:59:11;37.42;;;23.80;;
32216;SDS011;67098;51.140;4.088;2023-09-12T05:01:36;42.15;;;25.38;;
32216;SDS011;67098;51.140;4.088;2023-09-12T05:04:02;35.65;;;23.70;;
32216;SDS011;67098;51.140;4.088;2023-09-12T05:06:28;39.53;;;24.38;;
32216;SDS011;67098;51.140;4.088;2023-09-12T05:08:54;36.28;;;22.92;;
32216;SDS011;67098;51.140;4.088;2023-09-12T05:11:22;37.53;;;24.55;;
32216;SDS011;67098;51.140;4.088;2023-09-12T05:13:48;35.60;;;23.27;;
32216;SDS011;67098;51.140;4.088;2023-09-12T05:16:15;41.00;;;24.40;;
32216;SDS011;67098;51.140;4.088;2023-09-12T05:18:40;38.78;;;24.83;;
32216;SDS011;67098;51.140;4.088;2023-09-12T05:21:06;36.75;;;23.65;;
32216;SDS011;67098;51.140;4.088;2023-09-12T05:23:32;36.78;;;23.77;;
32216;SDS011;67098;51.140;4.088;2023-09-12T05:25:58;32.97;;;22.27;;
32216;SDS011;67098;51.140;4.088;2023-09-12T05:28:24;31.65;;;21.33;;
32216;SDS011;67098;51.140;4.088;2023-09-12T05:30:49;39.63;;;23.63;;
32216;SDS011;67098;51.140;4.088;2023-09-12T05:33:15;41.70;;;25.80;;
32216;SDS011;67098;51.140;4.088;2023-09-12T05:35:41;47.28;;;28.00;;
32216;SDS011;67098;51.140;4.088;2023-09-12T05:38:07;44.92;;;28.90;;
32216;SDS011;67098;51.140;4.088;2023-09-12T05:40:33;54.80;;;31.52;;
32216;SDS011;67098;51.140;4.088;2023-09-12T05:42:59;57.55;;;30.95;;
32216;SDS011;67098;51.140;4.088;2023-09-12T05:45:24;77.25;;;37.45;;
32216;SDS011;67098;51.140;4.088;2023-09-12T05:47:50;85.00;;;40.53;;
32216;SDS011;67098;51.140;4.088;2023-09-12T05:50:17;95.53;;;45.75;;
32216;SDS011;67098;51.140;4.088;2023-09-12T05:52:42;107.93;;;47.88;;
32216;SDS011;67098;51.140;4.088;2023-09-12T05:55:08;109.65;;;51.00;;
32216;SDS011;67098;51.140;4.088;2023-09-12T05:57:34;109.82;;;49.67;;
32216;SDS011;67098;51.140;4.088;2023-09-12T06:00:00;118.68;;;50.72;;
32216;SDS011;67098;51.140;4.088;2023-09-12T06:02:29;117.00;;;52.25;;
32216;SDS011;67098;51.140;4.088;2023-09-12T06:04:55;108.95;;;50.90;;
32216;SDS011;67098;51.140;4.088;2023-09-12T06:07:21;120.60;;;52.45;;
32216;SDS011;67098;51.140;4.088;2023-09-12T06:09:47;116.60;;;52.13;;
32216;SDS011;67098;51.140;4.088;2023-09-12T06:12:13;126.32;;;53.20;;
32216;SDS011;67098;51.140;4.088;2023-09-12T06:14:38;126.75;;;54.38;;
32216;SDS011;67098;51.140;4.088;2023-09-12T06:17:05;125.47;;;54.17;;
32216;SDS011;67098;51.140;4.088;2023-09-12T06:19:31;128.65;;;54.97;;
32216;SDS011;67098;51.140;4.088;2023-09-12T06:21:56;121.13;;;55.40;;
32216;SDS011;67098;51.140;4.088;2023-09-12T06:24:23;119.85;;;55.17;;
32216;SDS011;67098;51.140;4.088;2023-09-12T06:26:49;126.28;;;58.15;;
32216;SDS011;67098;51.140;4.088;2023-09-12T06:29:15;135.48;;;61.33;;
32216;SDS011;67098;51.140;4.088;2023-09-12T06:31:41;128.63;;;57.22;;
32216;SDS011;67098;51.140;4.088;2023-09-12T06:34:07;125.07;;;58.67;;
32216;SDS011;67098;51.140;4.088;2023-09-12T06:36:33;127.40;;;59.10;;
32216;SDS011;67098;51.140;4.088;2023-09-12T06:38:59;123.35;;;58.85;;
32216;SDS011;67098;51.140;4.088;2023-09-12T06:41:26;113.32;;;57.22;;
32216;SDS011;67098;51.140;4.088;2023-09-12T06:43:52;120.18;;;57.75;;
32216;SDS011;67098;51.140;4.088;2023-09-12T06:46:18;108.25;;;55.92;;
32216;SDS011;67098;51.140;4.088;2023-09-12T06:48:44;112.57;;;54.50;;
32216;SDS011;67098;51.140;4.088;2023-09-12T06:51:11;104.57;;;53.83;;
32216;SDS011;67098;51.140;4.088;2023-09-12T06:53:37;113.47;;;56.55;;
32216;SDS011;67098;51.140;4.088;2023-09-12T06:56:03;107.20;;;53.42;;
32216;SDS011;67098;51.140;4.088;2023-09-12T06:58:32;100.70;;;52.88;;
32216;SDS011;67098;51.140;4.088;2023-09-12T07:01:07;102.78;;;53.72;;
32216;SDS011;67098;51.140;4.088;2023-09-12T07:03:33;99.18;;;50.88;;
32216;SDS011;67098;51.140;4.088;2023-09-12T07:06:00;92.78;;;49.83;;
32216;SDS011;67098;51.140;4.088;2023-09-12T07:08:26;86.70;;;48.28;;
32216;SDS011;67098;51.140;4.088;2023-09-12T07:10:51;82.95;;;46.25;;
32216;SDS011;67098;51.140;4.088;2023-09-12T07:13:21;86.63;;;46.58;;
32216;SDS011;67098;51.140;4.088;2023-09-12T07:15:49;73.85;;;43.78;;
32216;SDS011;67098;51.140;4.088;2023-09-12T07:18:15;85.20;;;46.58;;
32216;SDS011;67098;51.140;4.088;2023-09-12T07:20:41;78.72;;;44.95;;
32216;SDS011;67098;51.140;4.088;2023-09-12T07:23:07;81.53;;;45.60;;
32216;SDS011;67098;51.140;4.088;2023-09-12T07:25:39;75.72;;;43.50;;
32216;SDS011;67098;51.140;4.088;2023-09-12T07:28:06;67.70;;;40.85;;
32216;SDS011;67098;51.140;4.088;2023-09-12T07:30:33;73.38;;;40.95;;
32216;SDS011;67098;51.140;4.088;2023-09-12T07:32:58;65.35;;;37.97;;
32216;SDS011;67098;51.140;4.088;2023-09-12T07:35:24;67.10;;;38.00;;
32216;SDS011;67098;51.140;4.088;2023-09-12T07:37:50;62.15;;;36.33;;
32216;SDS011;67098;51.140;4.088;2023-09-12T07:40:16;61.28;;;37.72;;
32216;SDS011;67098;51.140;4.088;2023-09-12T07:42:42;68.70;;;38.30;;
32216;SDS011;67098;51.140;4.088;2023-09-12T07:45:08;67.72;;;38.40;;
32216;SDS011;67098;51.140;4.088;2023-09-12T07:47:34;62.63;;;38.10;;
32216;SDS011;67098;51.140;4.088;2023-09-12T07:50:00;69.85;;;36.38;;
32216;SDS011;67098;51.140;4.088;2023-09-12T07:52:26;66.10;;;36.80;;
32216;SDS011;67098;51.140;4.088;2023-09-12T07:54:58;67.75;;;38.45;;
32216;SDS011;67098;51.140;4.088;2023-09-12T07:57:25;62.40;;;36.38;;
32216;SDS011;67098;51.140;4.088;2023-09-12T07:59:50;59.75;;;35.20;;
32216;SDS011;67098;51.140;4.088;2023-09-12T08:02:16;54.10;;;32.38;;
32216;SDS011;67098;51.140;4.088;2023-09-12T08:04:42;52.28;;;31.75;;
32216;SDS011;67098;51.140;4.088;2023-09-12T08:07:08;55.17;;;32.40;;
32216;SDS011;67098;51.140;4.088;2023-09-12T08:09:52;51.78;;;32.35;;
32216;SDS011;67098;51.140;4.088;2023-09-12T08:12:21;52.28;;;32.05;;
32216;SDS011;67098;51.140;4.088;2023-09-12T08:14:47;47.10;;;30.20;;
32216;SDS011;67098;51.140;4.088;2023-09-12T08:17:13;51.25;;;31.60;;
32216;SDS011;67098;51.140;4.088;2023-09-12T08:19:40;44.53;;;30.30;;
32216;SDS011;67098;51.140;4.088;2023-09-12T08:22:06;44.72;;;30.88;;
32216;SDS011;67098;51.140;4.088;2023-09-12T08:24:39;48.88;;;30.30;;
32216;SDS011;67098;51.140;4.088;2023-09-12T08:27:07;46.30;;;29.63;;
32216;SDS011;67098;51.140;4.088;2023-09-12T08:29:35;41.45;;;26.92;;
32216;SDS011;67098;51.140;4.088;2023-09-12T08:32:01;43.42;;;27.83;;
32216;SDS011;67098;51.140;4.088;2023-09-12T08:34:28;38.60;;;27.17;;
32216;SDS011;67098;51.140;4.088;2023-09-12T08:36:54;44.13;;;26.25;;
32216;SDS011;67098;51.140;4.088;2023-09-12T08:39:23;47.35;;;28.95;;
32216;SDS011;67098;51.140;4.088;2023-09-12T08:41:53;38.28;;;26.48;;
32216;SDS011;67098;51.140;4.088;2023-09-12T08:44:20;49.53;;;32.78;;
32216;SDS011;67098;51.140;4.088;2023-09-12T08:46:47;48.97;;;33.40;;
32216;SDS011;67098;51.140;4.088;2023-09-12T08:49:13;52.90;;;32.40;;
32216;SDS011;67098;51.140;4.088;2023-09-12T08:51:40;51.47;;;33.03;;
32216;SDS011;67098;51.140;4.088;2023-09-12T08:54:06;55.17;;;35.50;;
32216;SDS011;67098;51.140;4.088;2023-09-12T08:56:32;52.05;;;32.55;;
32216;SDS011;67098;51.140;4.088;2023-09-12T08:59:01;53.78;;;31.27;;
32216;SDS011;67098;51.140;4.088;2023-09-12T09:01:31;55.35;;;34.15;;
32216;SDS011;67098;51.140;4.088;2023-09-12T09:03:58;53.20;;;31.77;;
32216;SDS011;67098;51.140;4.088;2023-09-12T09:06:27;49.30;;;29.33;;
32216;SDS011;67098;51.140;4.088;2023-09-12T09:08:58;45.60;;;27.45;;
32216;SDS011;67098;51.140;4.088;2023-09-12T09:11:25;49.25;;;27.90;;
32216;SDS011;67098;51.140;4.088;2023-09-12T09:14:23;49.88;;;30.45;;
32216;SDS011;67098;51.140;4.088;2023-09-12T09:16:49;43.63;;;26.67;;
32216;SDS011;67098;51.140;4.088;2023-09-12T09:19:20;44.78;;;27.27;;
32216;SDS011;67098;51.140;4.088;2023-09-12T09:21:46;46.22;;;27.65;;
32216;SDS011;67098;51.140;4.088;2023-09-12T09:24:12;47.67;;;28.05;;
32216;SDS011;67098;51.140;4.088;2023-09-12T09:26:43;46.00;;;25.63;;
32216;SDS011;67098;51.140;4.088;2023-09-12T09:29:14;43.35;;;25.92;;
32216;SDS011;67098;51.140;4.088;2023-09-12T09:31:41;47.45;;;25.75;;
32216;SDS011;67098;51.140;4.088;2023-09-12T09:34:11;38.13;;;21.73;;
32216;SDS011;67098;51.140;4.088;2023-09-12T09:36:42;41.20;;;24.67;;
32216;SDS011;67098;51.140;4.088;2023-09-12T09:39:18;41.17;;;26.13;;
32216;SDS011;67098;51.140;4.088;2023-09-12T09:41:49;36.33;;;21.73;;
32216;SDS011;67098;51.140;4.088;2023-09-12T09:44:16;38.05;;;23.17;;
32216;SDS011;67098;51.140;4.088;2023-09-12T09:46:45;42.15;;;23.67;;
32216;SDS011;67098;51.140;4.088;2023-09-12T09:49:15;35.33;;;20.90;;
32216;SDS011;67098;51.140;4.088;2023-09-12T09:51:44;38.05;;;24.13;;
32216;SDS011;67098;51.140;4.088;2023-09-12T09:54:11;41.42;;;24.92;;
32216;SDS011;67098;51.140;4.088;2023-09-12T09:56:47;39.65;;;25.05;;
32216;SDS011;67098;51.140;4.088;2023-09-12T09:59:23;36.15;;;22.00;;
32216;SDS011;67098;51.140;4.088;2023-09-12T10:01:54;38.20;;;23.95;;
32216;SDS011;67098;51.140;4.088;2023-09-12T10:04:22;43.97;;;24.33;;
32216;SDS011;67098;51.140;4.088;2023-09-12T10:06:53;36.53;;;19.25;;
32216;SDS011;67098;51.140;4.088;2023-09-12T10:09:23;29.70;;;19.42;;
32216;SDS011;67098;51.140;4.088;2023-09-12T10:11:54;26.30;;;17.48;;
32216;SDS011;67098;51.140;4.088;2023-09-12T10:14:23;28.13;;;18.10;;
32216;SDS011;67098;51.140;4.088;2023-09-12T10:16:51;23.80;;;15.57;;
32216;SDS011;67098;51.140;4.088;2023-09-12T10:19:26;23.05;;;16.50;;
32216;SDS011;67098;51.140;4.088;2023-09-12T10:22:18;23.60;;;14.10;;
32216;SDS011;67098;51.140;4.088;2023-09-12T10:24:52;24.13;;;15.18;;
32216;SDS011;67098;51.140;4.088;2023-09-12T10:27:18;27.83;;;18.02;;
32216;SDS011;67098;51.140;4.088;2023-09-12T10:29:45;23.58;;;15.15;;
32216;SDS011;67098;51.140;4.088;2023-09-12T10:32:12;18.30;;;10.82;;
32216;SDS011;67098;51.140;4.088;2023-09-12T10:34:40;18.02;;;10.82;;
32216;SDS011;67098;51.140;4.088;2023-09-12T10:37:10;21.23;;;11.88;;
32216;SDS011;67098;51.140;4.088;2023-09-12T10:42:08;19.15;;;11.27;;
32216;SDS011;67098;51.140;4.088;2023-09-12T10:44:34;18.50;;;12.80;;
32216;SDS011;67098;51.140;4.088;2023-09-12T10:47:01;21.60;;;12.45;;
32216;SDS011;67098;51.140;4.088;2023-09-12T10:49:28;17.98;;;11.73;;
32216;SDS011;67098;51.140;4.088;2023-09-12T10:51:55;18.63;;;11.88;;
32216;SDS011;67098;51.140;4.088;2023-09-12T10:54:26;16.17;;;9.57;;
32216;SDS011;67098;51.140;4.088;2023-09-12T10:57:05;16.80;;;10.75;;
32216;SDS011;67098;51.140;4.088;2023-09-12T10:59:32;18.52;;;11.52;;
32216;SDS011;67098;51.140;4.088;2023-09-12T11:04:57;21.42;;;11.32;;
32216;SDS011;67098;51.140;4.088;2023-09-12T11:10:23;17.83;;;11.55;;
32216;SDS011;67098;51.140;4.088;2023-09-12T11:12:51;17.40;;;11.93;;
32216;SDS011;67098;51.140;4.088;2023-09-12T11:15:19;21.30;;;12.80;;
32216;SDS011;67098;51.140;4.088;2023-09-12T11:17:47;15.63;;;10.00;;
32216;SDS011;67098;51.140;4.088;2023-09-12T11:20:14;11.77;;;9.27;;
32216;SDS011;67098;51.140;4.088;2023-09-12T11:22:50;14.90;;;10.70;;
32216;SDS011;67098;51.140;4.088;2023-09-12T11:25:18;17.20;;;8.35;;
32216;SDS011;67098;51.140;4.088;2023-09-12T11:30:17;14.30;;;8.40;;
32216;SDS011;67098;51.140;4.088;2023-09-12T11:32:47;14.40;;;9.23;;
32216;SDS011;67098;51.140;4.088;2023-09-12T11:35:17;11.68;;;7.80;;
32216;SDS011;67098;51.140;4.088;2023-09-12T11:37:49;12.70;;;7.35;;
32216;SDS011;67098;51.140;4.088;2023-09-12T11:42:47;16.13;;;10.40;;
32216;SDS011;67098;51.140;4.088;2023-09-12T11:45:24;12.98;;;8.27;;
32216;SDS011;67098;51.140;4.088;2023-09-12T11:47:50;11.07;;;7.05;;
32216;SDS011;67098;51.140;4.088;2023-09-12T11:51:16;11.18;;;5.95;;
32216;SDS011;67098;51.140;4.088;2023-09-12T11:53:14;12.13;;;7.00;;
32216;SDS011;67098;51.140;4.088;2023-09-12T11:55:45;14.10;;;8.20;;
32216;SDS011;67098;51.140;4.088;2023-09-12T11:58:12;14.88;;;7.43;;
32216;SDS011;67098;51.140;4.088;2023-09-12T12:00:48;10.38;;;6.40;;
32216;SDS011;67098;51.140;4.088;2023-09-12T12:03:16;12.07;;;6.28;;
32216;SDS011;67098;51.140;4.088;2023-09-12T12:05:43;10.32;;;6.03;;
32216;SDS011;67098;51.140;4.088;2023-09-12T12:08:09;8.52;;;4.90;;
32216;SDS011;67098;51.140;4.088;2023-09-12T12:10:36;12.40;;;5.93;;
32216;SDS011;67098;51.140;4.088;2023-09-12T12:13:04;13.63;;;8.48;;
32216;SDS011;67098;51.140;4.088;2023-09-12T12:15:30;11.27;;;6.68;;
32216;SDS011;67098;51.140;4.088;2023-09-12T12:17:57;14.85;;;8.63;;
32216;SDS011;67098;51.140;4.088;2023-09-12T12:20:23;11.90;;;7.00;;
32216;SDS011;67098;51.140;4.088;2023-09-12T12:22:49;12.23;;;7.90;;
32216;SDS011;67098;51.140;4.088;2023-09-12T12:25:18;14.88;;;8.27;;
32216;SDS011;67098;51.140;4.088;2023-09-12T12:27:43;11.02;;;7.35;;
32216;SDS011;67098;51.140;4.088;2023-09-12T12:30:10;14.70;;;9.27;;
32216;SDS011;67098;51.140;4.088;2023-09-12T12:32:40;11.70;;;6.90;;
32216;SDS011;67098;51.140;4.088;2023-09-12T12:35:19;15.80;;;7.50;;
32216;SDS011;67098;51.140;4.088;2023-09-12T12:37:50;16.88;;;9.00;;
32216;SDS011;67098;51.140;4.088;2023-09-12T12:40:16;16.08;;;10.00;;
32216;SDS011;67098;51.140;4.088;2023-09-12T12:42:43;21.95;;;12.57;;
32216;SDS011;67098;51.140;4.088;2023-09-12T12:45:12;19.52;;;13.15;;
32216;SDS011;67098;51.140;4.088;2023-09-12T12:47:39;21.00;;;13.57;;
32216;SDS011;67098;51.140;4.088;2023-09-12T12:50:10;19.17;;;11.90;;
32216;SDS011;67098;51.140;4.088;2023-09-12T12:52:37;24.05;;;13.55;;
32216;SDS011;67098;51.140;4.088;2023-09-12T12:55:06;26.08;;;18.20;;
32216;SDS011;67098;51.140;4.088;2023-09-12T12:57:38;23.02;;;16.15;;
32216;SDS011;67098;51.140;4.088;2023-09-12T13:00:14;22.80;;;15.07;;
32216;SDS011;67098;51.140;4.088;2023-09-12T13:02:41;22.98;;;16.10;;
32216;SDS011;67098;51.140;4.088;2023-09-12T13:05:20;32.15;;;19.70;;
32216;SDS011;67098;51.140;4.088;2023-09-12T13:07:49;30.70;;;19.65;;
32216;SDS011;67098;51.140;4.088;2023-09-12T13:10:16;25.10;;;17.30;;
32216;SDS011;67098;51.140;4.088;2023-09-12T13:12:42;28.35;;;17.67;;
32216;SDS011;67098;51.140;4.088;2023-09-12T13:15:10;26.88;;;17.60;;
32216;SDS011;67098;51.140;4.088;2023-09-12T13:17:37;30.13;;;20.45;;
32216;SDS011;67098;51.140;4.088;2023-09-12T13:20:03;28.70;;;20.33;;
32216;SDS011;67098;51.140;4.088;2023-09-12T13:22:30;32.63;;;21.75;;
32216;SDS011;67098;51.140;4.088;2023-09-12T13:24:55;25.40;;;17.23;;
32216;SDS011;67098;51.140;4.088;2023-09-12T13:27:21;32.25;;;22.83;;
32216;SDS011;67098;51.140;4.088;2023-09-12T13:29:47;26.50;;;19.40;;
32216;SDS011;67098;51.140;4.088;2023-09-12T13:32:13;21.90;;;16.38;;
32216;SDS011;67098;51.140;4.088;2023-09-12T13:34:40;30.33;;;20.00;;
32216;SDS011;67098;51.140;4.088;2023-09-12T13:37:06;22.88;;;16.17;;
32216;SDS011;67098;51.140;4.088;2023-09-12T13:39:32;31.88;;;21.75;;
32216;SDS011;67098;51.140;4.088;2023-09-12T13:41:57;33.05;;;21.48;;
32216;SDS011;67098;51.140;4.088;2023-09-12T13:44:27;31.38;;;20.63;;
32216;SDS011;67098;51.140;4.088;2023-09-12T13:46:53;28.88;;;19.60;;
32216;SDS011;67098;51.140;4.088;2023-09-12T13:49:18;29.67;;;20.40;;
32216;SDS011;67098;51.140;4.088;2023-09-12T13:51:44;34.78;;;24.08;;
32216;SDS011;67098;51.140;4.088;2023-09-12T13:54:10;32.20;;;23.92;;
32216;SDS011;67098;51.140;4.088;2023-09-12T13:56:40;37.72;;;24.20;;
32216;SDS011;67098;51.140;4.088;2023-09-12T13:59:06;30.42;;;22.02;;
32216;SDS011;67098;51.140;4.088;2023-09-12T14:01:32;37.85;;;27.67;;
32216;SDS011;67098;51.140;4.088;2023-09-12T14:03:58;42.60;;;32.35;;
32216;SDS011;67098;51.140;4.088;2023-09-12T14:06:24;35.15;;;24.17;;
32216;SDS011;67098;51.140;4.088;2023-09-12T14:08:50;31.08;;;21.27;;
32216;SDS011;67098;51.140;4.088;2023-09-12T14:11:17;36.30;;;22.48;;
32216;SDS011;67098;51.140;4.088;2023-09-12T14:13:43;31.00;;;21.60;;
32216;SDS011;67098;51.140;4.088;2023-09-12T14:16:09;26.92;;;20.65;;
32216;SDS011;67098;51.140;4.088;2023-09-12T14:18:35;39.28;;;24.27;;
32216;SDS011;67098;51.140;4.088;2023-09-12T14:21:00;30.83;;;21.23;;
32216;SDS011;67098;51.140;4.088;2023-09-12T14:23:26;55.22;;;25.02;;
32216;SDS011;67098;51.140;4.088;2023-09-12T14:25:52;38.05;;;23.63;;
32216;SDS011;67098;51.140;4.088;2023-09-12T14:28:18;242.00;;;33.05;;
32216;SDS011;67098;51.140;4.088;2023-09-12T14:30:44;87.38;;;26.83;;
32216;SDS011;67098;51.140;4.088;2023-09-12T14:33:11;126.32;;;24.77;;
32216;SDS011;67098;51.140;4.088;2023-09-12T14:35:37;200.35;;;30.67;;
32216;SDS011;67098;51.140;4.088;2023-09-12T14:38:03;127.22;;;25.42;;
32216;SDS011;67098;51.140;4.088;2023-09-12T14:40:31;169.52;;;29.35;;